Aktualne dane pomiarowe

Uwaga, wersja testowa! Automatyczne pobieranie danych za pomocą narzędzi lub skryptów to umożliwiających jest zabronione.

Dane meteo z obszaru Polski uzyskane na podstawie depesz SYNOP pobieranych co godzinę z NWS. Najedź myszką na symbol przedstawiony w tabeli, aby uzyskać informacje co do jego znaczenia. Prosimy pamiętać, że to testowa wersja strony, która jeszcze nie jest ukończona. Stworzono również jest krótki FAQ dotyczący korzystania z tej podstrony Anomalie temperatury w chwili obecnej odniesione są do okresu referencyjnego 1951-2016. Okres ten będzie później zmieniony na 1981-2010. Kliknij ikonę aby pobrać plik CSV. Kliknij ikonę aby wygenerować mapę synoptyczną dla danego terminu.

Wybierz Datę:    

        

Zamość (12595)

Dane terminowe dla wybranej stacji. Kliknij datę, aby otrzymać dane z tego terminu dla wszystkich stacji.

TemperaturaZachmurzenieWiatrCiśnienieOpadyPogoda
 Data t td wb tx tn tg rh  Nt Nl Cl Cm Ch ws wd g1 g2 wx mslp ppp ch 24h 12h t ww ww w1 w2  
2019-06-22 23:00:00 17.8 16.3 16.7--- 9120.0--2wx--21019.2 992.9 -0.1---------
2019-06-22 22:00:00 18.1 16.8 17.2--- 9220.0--1wx--11019.2 993.0 -0.4---------
2019-06-22 21:00:00 18.2 16.5 17.0--- 9020.0--2wx--21019.3 993.1 -0.1---------
2019-06-22 20:00:00 19.2 16.8 17.5--- 8620.0--2wx--21019.1 993.0 -0.3---wx-----
2019-06-22 19:00:00 19.5 17.1 17.8--- 8620.0--1wx--11019.5 993.4 0.4---------
2019-06-22 18:00:00 20.3 17.3 18.2 23.0 18.7- 8320.0wxwxwxwxwx2wx--21019.3 993.2 -0.2- 0.012------
2019-06-22 17:00:00 21.5 16.9 18.3--- 7520.0wxwxwxwxwx3wx--31019.2 993.3 -0.3---------
2019-06-22 16:00:00 22.3 17.0 18.7--- 7220.0wxwxwxwxwx4wx--41018.9 993.0 -1.0---------
2019-06-22 15:00:00 22.7 17.2 19.0--- 7120.0wxwxwxwxwx5wx--51019.2 993.4 -1.0---------
2019-06-22 14:00:00 22.0 17.6 18.9--- 7620.0wxwxwxwx4wx--41019.5 993.6 -1.1---------
2019-06-22 13:00:00 21.0 17.4 18.5--- 8020.0wxwxwx5wx--51020.0 994.0 -0.6---------
2019-06-22 12:00:00 20.5 17.7 18.5--- 8420.0wxwxwx5wx---1020.5 994.4 0.2---------
2019-06-22 11:00:00 20.0 17.8 18.4--- 8720.0wxwxwx5wx---1020.8 994.7 0.8---------
2019-06-22 10:00:00 20.1 17.5 18.3--- 8520.0wxwxwxwx4wx--41020.7 994.6 1.2---------
2019-06-22 09:00:00 20.3 17.9 18.6--- 8620.0wxwxwx6wx--61020.3 994.2 1.1---------
2019-06-22 08:00:00 20.3 17.9 18.6--- 8620.0wxwxwxwx5wx--51020.0 993.9 1.2---------
2019-06-22 07:00:00 19.5 17.6 18.1--- 8920.0wxwxwx4wx--41019.5 993.4 1.2---------
2019-06-22 06:00:00 18.7 17.5 17.8 19.8 16.6 16 9320.0wxwxwx4wx--41019.3 993.1 1.0 6.8 0.312wx-----
2019-06-22 05:00:00 18.1 17.5 17.7--- 968.0--4wx--41018.9 992.7 1.2---wx-----
2019-06-22 04:00:00 17.7 17.2 17.3--- 975.0--4wx--41018.5 992.2 0.9---wx-----
2019-06-22 03:00:00 17.6 17.3 17.4--- 985.0--2wx--21018.4 992.1 1.2---wx-----
2019-06-22 02:00:00 17.5 17.2 17.3--- 984.7--2wx--21017.8 991.5 1.4---wx-----
2019-06-22 01:00:00 17.5 17.3 17.3--- 993.8--2wx--21017.6 991.3 1.2---wx-----
2019-06-22 00:00:00 16.9 16.7 16.7--- 993.6--2wx--21017.2 990.9 1.0- 0.26wx-----
2019-06-21 23:00:00 17.2 16.7 16.8--- 975.0--2wx--21016.4 990.1 0.2---wx-----
2019-06-21 22:00:00 17.6 17.0 17.2--- 9610.0--3wx--31016.3 990.1 0.2---------
2019-06-21 21:00:00 17.9 17.1 17.3--- 9513.0--3wx--31016.1 989.9 0.1---------
2019-06-21 20:00:00 18.1 17.1 17.4--- 949.0--1wx--11016.1 989.9 1.1---wx-----
2019-06-21 19:00:00 19.0 17.1 17.6--- 8920.0--1wx--11016.0 989.9 1.6---wx-----
2019-06-21 18:00:00 19.8 17.2 18.0 27.4 19.7- 8520.0wxwxwx4wx--41015.8 989.8 1.7- 7.012wx-w1w2--
2019-06-21 17:00:00 22.6 18.4 19.7--- 7720.0wxwxwxwx2wx---1014.5 988.8 0.8---wx-w1w2--
2019-06-21 16:00:00 23.6 17.3 19.3--- 6820.0wxwxwxwx6wx--61013.9 988.3 -0.1---wx---
2019-06-21 15:00:00 25.3 16.7 19.6--- 5920.0wxwxwxwx2wx---1013.6 988.1 -0.2---wx-w1w2--
2019-06-21 14:00:00 24.9 17.4 19.9--- 6320.0wxwxwxwx2wx--21013.5 988.0 -0.7---wx-w1w2--
2019-06-21 13:00:00 19.8 18.1 18.6--- 9017.0wxwxwxwx5wx--51014.4 988.4 -0.6---wx-w1--
2019-06-21 12:00:00 26.0 17.6 20.4--- 6020.0wxwxwxwx2wx--21013.7 988.3 -0.6- 0.16wx-w1--
2019-06-21 11:00:00 26.9 17.1 20.4--- 5520.0wxwxwxwx2wx---1014.1 988.7 -0.1---------
2019-06-21 10:00:00 25.7 18.6 20.9--- 6520.0wxwxwxwxwx4wx---1014.5 989.0 0.5---------
2019-06-21 09:00:00 25.1 19.2 21.0--- 7020.0wxwxwxwxwx4wx--41014.4 988.9 0.5---------
2019-06-21 08:00:00 24.3 18.9 20.6--- 7220.0wxwxwxwxwx4wx--41014.4 988.8 1.0---------
2019-06-21 07:00:00 22.9 18.4 19.8--- 7620.0wxwxwxwx3wx--31014.2 988.5 0.8---------
2019-06-21 06:00:00 21.7 17.9 19.0 23.6 16.2 15 7920.0wx-wxwx3wx--31014.2 988.4 0.8--12wx-----
2019-06-21 05:00:00 20.9 17.7 18.6--- 8220.0--2wx--21013.7 987.8 0.4---------
2019-06-21 04:00:00 18.6 16.7 17.2--- 8920.0--1wx--11013.8 987.7 0.5---------
2019-06-21 03:00:00 16.6 15.8 16.0--- 9520.0--1wx--11013.8 987.6 0.5---------
2019-06-21 02:00:00 16.6 15.5 15.8--- 9320.0--1wx--11013.6 987.4 0.9---------
2019-06-21 01:00:00 16.8 15.8 16.1--- 9420.0--1wx--11013.4 987.2 0.8---------
2019-06-21 00:00:00 16.9 16.3 16.4--- 9620.0--2wx--21013.3 987.1 0.3--6------
1.6 ms

 

Print Friendly, PDF & Email